createdAt,value
2017-08-02T00:00:57.408Z,1002.82
2017-08-02T00:01:58.851Z,1002.84
2017-08-02T00:03:00.276Z,1002.84
2017-08-02T00:04:01.699Z,1002.84
2017-08-02T00:05:03.125Z,1002.83
2017-08-02T00:06:04.555Z,1002.85
2017-08-02T00:07:05.984Z,1002.85
2017-08-02T00:08:07.410Z,1002.91
2017-08-02T00:09:08.834Z,1002.93
2017-08-02T00:10:10.258Z,1003.00
2017-08-02T00:11:11.684Z,1003.02
2017-08-02T00:12:13.106Z,1003.00
2017-08-02T00:13:14.540Z,1002.99
2017-08-02T00:14:15.971Z,1003.00
2017-08-02T00:15:17.395Z,1002.96
2017-08-02T00:16:18.831Z,1002.93
2017-08-02T00:17:20.254Z,1002.93
2017-08-02T00:18:21.693Z,1002.96
2017-08-02T00:19:23.123Z,1002.91
2017-08-02T00:20:24.538Z,1002.90
2017-08-02T00:21:25.966Z,1002.90
2017-08-02T00:22:27.391Z,1002.91
2017-08-02T00:23:28.818Z,1002.90
2017-08-02T00:24:30.240Z,1002.91
2017-08-02T00:25:31.660Z,1002.86
2017-08-02T00:26:33.093Z,1002.85
2017-08-02T00:27:34.524Z,1002.86
2017-08-02T00:28:35.942Z,1002.86
2017-08-02T00:29:37.369Z,1002.83
2017-08-02T00:30:38.801Z,1002.83
2017-08-02T00:31:40.228Z,1002.78
2017-08-02T00:32:41.655Z,1002.81
2017-08-02T00:33:43.081Z,1002.80
2017-08-02T00:34:44.505Z,1002.78
2017-08-02T00:35:45.931Z,1002.76
2017-08-02T00:36:47.354Z,1002.72
2017-08-02T00:37:48.779Z,1002.73
2017-08-02T00:38:50.215Z,1002.77
2017-08-02T00:39:51.638Z,1002.79
2017-08-02T00:40:53.057Z,1002.86
2017-08-02T00:41:54.487Z,1002.84
2017-08-02T00:42:55.924Z,1002.81
2017-08-02T00:43:57.349Z,1002.73
2017-08-02T00:44:58.771Z,1002.64
2017-08-02T00:46:00.197Z,1002.65
2017-08-02T00:47:01.624Z,1002.60
2017-08-02T00:48:03.053Z,1002.59
2017-08-02T00:49:04.608Z,1002.58
2017-08-02T00:50:06.041Z,1002.58
2017-08-02T00:51:07.467Z,1002.55
2017-08-02T00:52:08.905Z,1002.55
2017-08-02T00:53:10.376Z,1002.50
2017-08-02T00:54:11.795Z,1002.49
2017-08-02T00:55:13.224Z,1002.47
2017-08-02T00:56:14.742Z,1002.48
2017-08-02T00:57:16.169Z,1002.47
2017-08-02T00:58:17.590Z,1002.51
2017-08-02T00:59:19.025Z,1002.49
2017-08-02T01:00:20.503Z,1002.47
2017-08-02T01:01:21.930Z,1002.46
2017-08-02T01:02:23.354Z,1002.49
2017-08-02T01:03:24.822Z,1002.49
2017-08-02T01:04:26.251Z,1002.50
2017-08-02T01:05:27.673Z,1002.51
2017-08-02T01:06:29.104Z,1002.53
2017-08-02T01:07:30.627Z,1002.47
2017-08-02T01:08:32.060Z,1002.50
2017-08-02T01:09:33.486Z,1002.50
2017-08-02T01:10:34.919Z,1002.46
2017-08-02T01:11:36.351Z,1002.47
2017-08-02T01:12:37.782Z,1002.47
2017-08-02T01:13:39.211Z,1002.48
2017-08-02T01:14:40.636Z,1002.44
2017-08-02T01:15:42.065Z,1002.44
2017-08-02T01:16:43.481Z,1002.49
2017-08-02T01:17:44.909Z,1002.47
2017-08-02T01:18:46.332Z,1002.51
2017-08-02T01:19:47.760Z,1002.43
2017-08-02T01:20:49.187Z,1002.44
2017-08-02T01:21:50.610Z,1002.43
2017-08-02T01:22:52.035Z,1002.44
2017-08-02T01:23:53.467Z,1002.43
2017-08-02T01:24:54.894Z,1002.46
2017-08-02T01:25:56.323Z,1002.41
2017-08-02T01:26:57.771Z,1002.39
2017-08-02T01:27:59.166Z,1002.46
2017-08-02T01:29:00.589Z,1002.41
2017-08-02T01:30:02.016Z,1002.47
2017-08-02T01:31:03.444Z,1002.46
2017-08-02T01:32:04.877Z,1002.51
2017-08-02T01:33:06.313Z,1002.45
2017-08-02T01:34:07.735Z,1002.43
2017-08-02T01:35:09.166Z,1002.44
2017-08-02T01:36:10.591Z,1002.48
2017-08-02T01:37:12.020Z,1002.46
2017-08-02T01:38:13.441Z,1002.43
2017-08-02T01:39:14.869Z,1002.43
2017-08-02T01:40:16.290Z,1002.39
2017-08-02T01:41:17.717Z,1002.40
2017-08-02T01:42:19.145Z,1002.43
2017-08-02T01:43:20.565Z,1002.42
2017-08-02T01:44:21.987Z,1002.47
2017-08-02T01:45:23.407Z,1002.47
2017-08-02T01:46:24.833Z,1002.44
2017-08-02T01:47:26.262Z,1002.47
2017-08-02T01:48:27.687Z,1002.42
2017-08-02T01:49:29.121Z,1002.48
2017-08-02T01:50:30.535Z,1002.43
2017-08-02T01:51:31.959Z,1002.45
2017-08-02T01:52:33.386Z,1002.40
2017-08-02T01:53:34.809Z,1002.46
2017-08-02T01:54:37.010Z,1002.47
2017-08-02T01:55:38.446Z,1002.45
2017-08-02T01:56:39.869Z,1002.45
2017-08-02T01:57:41.298Z,1002.48
2017-08-02T01:58:42.795Z,1002.46
2017-08-02T01:59:44.236Z,1002.50
2017-08-02T02:00:45.664Z,1002.50
2017-08-02T02:01:47.090Z,1002.49
2017-08-02T02:02:48.521Z,1002.43
2017-08-02T02:03:50.037Z,1002.41
2017-08-02T02:04:51.456Z,1002.46
2017-08-02T02:05:52.883Z,1002.47
2017-08-02T02:06:54.317Z,1002.43
2017-08-02T02:07:55.732Z,1002.50
2017-08-02T02:08:57.149Z,1002.46
2017-08-02T02:09:58.581Z,1002.45
2017-08-02T02:11:00.105Z,1002.42
2017-08-02T02:12:01.525Z,1002.44
2017-08-02T02:13:02.948Z,1002.50
2017-08-02T02:14:04.397Z,1002.53
2017-08-02T02:15:05.822Z,1002.61
2017-08-02T02:16:07.254Z,1002.58
2017-08-02T02:17:08.689Z,1002.63
2017-08-02T02:18:10.160Z,1002.56
2017-08-02T02:19:11.585Z,1002.51
2017-08-02T02:20:13.010Z,1002.47
2017-08-02T02:21:14.443Z,1002.46
2017-08-02T02:22:15.876Z,1002.46
2017-08-02T02:23:17.299Z,1002.44
2017-08-02T02:24:18.718Z,1002.46
2017-08-02T02:25:20.141Z,1002.43
2017-08-02T02:26:21.568Z,1002.44
2017-08-02T02:27:23.002Z,1002.41
2017-08-02T02:28:24.441Z,1002.36
2017-08-02T02:29:25.863Z,1002.44
2017-08-02T02:30:27.294Z,1002.44
2017-08-02T02:31:28.712Z,1002.43
2017-08-02T02:32:30.133Z,1002.45
2017-08-02T02:33:31.558Z,1002.43
2017-08-02T02:34:32.980Z,1002.44
2017-08-02T02:35:34.408Z,1002.43
2017-08-02T02:36:35.843Z,1002.51
2017-08-02T02:37:37.270Z,1002.51
2017-08-02T02:38:38.696Z,1002.51
2017-08-02T02:39:40.122Z,1002.57
2017-08-02T02:40:41.545Z,1002.57
2017-08-02T02:41:42.966Z,1002.56
2017-08-02T02:42:44.392Z,1002.44
2017-08-02T02:43:45.817Z,1002.41
2017-08-02T02:44:47.248Z,1002.37
2017-08-02T02:45:48.677Z,1002.38
2017-08-02T02:46:50.097Z,1002.35
2017-08-02T02:47:51.521Z,1002.33
2017-08-02T02:48:52.942Z,1002.24
2017-08-02T02:49:54.378Z,1002.21
2017-08-02T02:50:55.798Z,1002.23
2017-08-02T02:51:57.223Z,1002.27
2017-08-02T02:52:58.646Z,1002.28
2017-08-02T02:54:00.070Z,1002.35
2017-08-02T02:55:01.490Z,1002.41
2017-08-02T02:56:02.918Z,1002.43
2017-08-02T02:57:04.340Z,1002.48
2017-08-02T02:58:05.772Z,1002.47
2017-08-02T02:59:07.201Z,1002.53
2017-08-02T03:00:08.620Z,1002.43
2017-08-02T03:01:10.040Z,1002.44
2017-08-02T03:02:11.464Z,1002.45
2017-08-02T03:03:12.892Z,1002.43
2017-08-02T03:04:14.321Z,1002.42
2017-08-02T03:05:15.752Z,1002.48
2017-08-02T03:06:17.172Z,1002.51
2017-08-02T03:07:18.618Z,1002.57
2017-08-02T03:08:20.040Z,1002.62
2017-08-02T03:09:21.461Z,1002.55
2017-08-02T03:10:22.908Z,1002.51
2017-08-02T03:11:24.321Z,1002.45
2017-08-02T03:12:25.744Z,1002.39
2017-08-02T03:13:27.168Z,1002.31
2017-08-02T03:14:28.717Z,1002.27
2017-08-02T03:15:30.149Z,1002.25
2017-08-02T03:16:31.567Z,1002.26
2017-08-02T03:17:32.996Z,1002.29
2017-08-02T03:18:34.421Z,1002.33
2017-08-02T03:19:35.842Z,1002.33
2017-08-02T03:20:37.266Z,1002.35
2017-08-02T03:21:38.696Z,1002.33
2017-08-02T03:22:40.126Z,1002.27
2017-08-02T03:23:41.548Z,1002.22
2017-08-02T03:24:42.968Z,1002.22
2017-08-02T03:25:44.395Z,1002.27
2017-08-02T03:26:45.820Z,1002.31
2017-08-02T03:27:47.244Z,1002.33
2017-08-02T03:28:48.666Z,1002.30
2017-08-02T03:29:50.091Z,1002.27
2017-08-02T03:30:51.535Z,1002.23
2017-08-02T03:31:52.950Z,1002.20
2017-08-02T03:32:54.374Z,1002.21
2017-08-02T03:33:55.802Z,1002.24
2017-08-02T03:34:57.221Z,1002.26
2017-08-02T03:35:58.645Z,1002.28
2017-08-02T03:37:00.068Z,1002.36
2017-08-02T03:38:01.502Z,1002.34
2017-08-02T03:39:02.930Z,1002.28
2017-08-02T03:40:04.362Z,1002.24
2017-08-02T03:41:06.451Z,1002.24
2017-08-02T03:42:07.880Z,1002.27
2017-08-02T03:43:09.296Z,1002.29
2017-08-02T03:44:10.728Z,1002.27
2017-08-02T03:45:12.156Z,1002.25
2017-08-02T03:46:13.587Z,1002.27
2017-08-02T03:47:15.007Z,1002.30
2017-08-02T03:48:16.433Z,1002.30
2017-08-02T03:49:17.860Z,1002.34
2017-08-02T03:50:19.283Z,1002.31
2017-08-02T03:51:20.708Z,1002.31
2017-08-02T03:52:22.132Z,1002.27
2017-08-02T03:53:23.559Z,1002.23
2017-08-02T03:54:24.989Z,1002.18
2017-08-02T03:55:26.462Z,1002.16
2017-08-02T03:56:27.888Z,1002.18
2017-08-02T03:57:29.319Z,1002.19
2017-08-02T03:58:30.744Z,1002.20
2017-08-02T03:59:32.186Z,1002.23
2017-08-02T04:00:33.608Z,1002.28
2017-08-02T04:01:35.030Z,1002.27
2017-08-02T04:02:36.462Z,1002.26
2017-08-02T04:03:38.001Z,1002.28
2017-08-02T04:04:40.250Z,1002.19
2017-08-02T04:05:41.678Z,1002.20
2017-08-02T04:06:43.105Z,1002.20
2017-08-02T04:07:44.537Z,1002.23
2017-08-02T04:08:45.959Z,1002.21
2017-08-02T04:09:47.383Z,1002.31
2017-08-02T04:10:48.806Z,1002.31
2017-08-02T04:11:50.237Z,1002.31
2017-08-02T04:12:51.662Z,1002.31
2017-08-02T04:13:53.088Z,1002.32
2017-08-02T04:14:54.508Z,1002.31
2017-08-02T04:15:55.934Z,1002.33
2017-08-02T04:16:57.372Z,1002.29
2017-08-02T04:17:58.788Z,1002.26
2017-08-02T04:19:00.212Z,1002.26
2017-08-02T04:20:01.638Z,1002.25
2017-08-02T04:21:03.069Z,1002.27
2017-08-02T04:22:04.501Z,1002.27
2017-08-02T04:23:05.923Z,1002.28
2017-08-02T04:24:07.352Z,1002.33
2017-08-02T04:25:08.782Z,1002.35
2017-08-02T04:26:10.209Z,1002.38
2017-08-02T04:27:11.638Z,1002.35
2017-08-02T04:28:13.060Z,1002.38
2017-08-02T04:29:14.491Z,1002.38
2017-08-02T04:30:15.924Z,1002.36
2017-08-02T04:31:17.350Z,1002.39
2017-08-02T04:32:18.777Z,1002.31
2017-08-02T04:33:20.212Z,1002.31
2017-08-02T04:34:21.645Z,1002.29
2017-08-02T04:35:23.081Z,1002.27
2017-08-02T04:36:24.509Z,1002.26
2017-08-02T04:37:25.936Z,1002.24
2017-08-02T04:38:27.361Z,1002.23
2017-08-02T04:39:28.786Z,1002.23
2017-08-02T04:40:30.313Z,1002.22
2017-08-02T04:41:31.742Z,1002.17
2017-08-02T04:42:33.180Z,1002.12
2017-08-02T04:43:34.611Z,1002.12
2017-08-02T04:44:36.038Z,1002.14
2017-08-02T04:45:37.468Z,1002.19
2017-08-02T04:46:38.893Z,1002.17
2017-08-02T04:47:40.327Z,1002.15
2017-08-02T04:48:41.751Z,1002.12
2017-08-02T04:49:43.184Z,1002.15
2017-08-02T04:50:44.622Z,1002.09
2017-08-02T04:51:46.050Z,1002.13
2017-08-02T04:52:47.509Z,1002.11
2017-08-02T04:53:48.913Z,1002.11
2017-08-02T04:54:50.342Z,1002.16
2017-08-02T04:55:51.761Z,1002.15
2017-08-02T04:56:53.196Z,1002.18
2017-08-02T04:57:54.635Z,1002.21
2017-08-02T04:58:56.059Z,1002.20
2017-08-02T04:59:57.489Z,1002.19
2017-08-02T05:00:58.918Z,1002.18
2017-08-02T05:02:00.347Z,1002.22
2017-08-02T05:03:01.801Z,1002.23
2017-08-02T05:04:03.210Z,1002.30
2017-08-02T05:05:04.638Z,1002.29
2017-08-02T05:06:06.073Z,1002.30
2017-08-02T05:07:07.502Z,1002.28
2017-08-02T05:08:08.928Z,1002.25
2017-08-02T05:09:10.360Z,1002.28
2017-08-02T05:10:11.791Z,1002.31
2017-08-02T05:11:13.223Z,1002.29
2017-08-02T05:12:14.659Z,1002.32
2017-08-02T05:13:16.078Z,1002.37
2017-08-02T05:14:17.527Z,1002.36
2017-08-02T05:15:18.945Z,1002.31
2017-08-02T05:16:20.374Z,1002.34
2017-08-02T05:17:21.800Z,1002.38
2017-08-02T05:18:23.229Z,1002.35
2017-08-02T05:19:24.664Z,1002.33
2017-08-02T05:20:26.092Z,1002.33
2017-08-02T05:21:27.524Z,1002.30
2017-08-02T05:22:28.953Z,1002.29
2017-08-02T05:23:30.379Z,1002.29
2017-08-02T05:24:31.810Z,1002.28
2017-08-02T05:25:33.241Z,1002.26
2017-08-02T05:26:34.667Z,1002.28
2017-08-02T05:27:36.108Z,1002.28
2017-08-02T05:28:37.534Z,1002.27
2017-08-02T05:29:38.962Z,1002.31
2017-08-02T05:30:40.385Z,1002.32
2017-08-02T05:31:41.808Z,1002.34
2017-08-02T05:32:43.253Z,1002.36
2017-08-02T05:33:44.680Z,1002.34
2017-08-02T05:34:46.109Z,1002.42
2017-08-02T05:35:47.543Z,1002.48
2017-08-02T05:36:48.972Z,1002.44
2017-08-02T05:37:50.402Z,1002.47
2017-08-02T05:38:51.831Z,1002.44
2017-08-02T05:39:53.263Z,1002.49
2017-08-02T05:40:54.692Z,1002.39
2017-08-02T05:41:56.125Z,1002.47
2017-08-02T05:42:57.557Z,1002.45
2017-08-02T05:43:58.979Z,1002.45
2017-08-02T05:45:00.407Z,1002.45
2017-08-02T05:46:01.834Z,1002.42
2017-08-02T05:47:03.265Z,1002.42
2017-08-02T05:48:04.691Z,1002.43
2017-08-02T05:49:06.121Z,1002.39
2017-08-02T05:50:07.559Z,1002.40
2017-08-02T05:51:08.983Z,1002.38
2017-08-02T05:52:10.411Z,1002.39
2017-08-02T05:53:11.844Z,1002.39
2017-08-02T05:54:13.280Z,1002.39
2017-08-02T05:55:14.698Z,1002.48
2017-08-02T05:56:16.129Z,1002.46
2017-08-02T05:57:17.560Z,1002.43
2017-08-02T05:58:18.985Z,1002.45
2017-08-02T05:59:20.417Z,1002.43
2017-08-02T06:00:21.850Z,1002.44
2017-08-02T06:01:23.278Z,1002.46
2017-08-02T06:02:24.708Z,1002.51
2017-08-02T06:03:26.130Z,1002.54
2017-08-02T06:04:27.556Z,1002.54
2017-08-02T06:05:28.982Z,1002.54
2017-08-02T06:06:30.418Z,1002.51
2017-08-02T06:07:31.851Z,1002.61
2017-08-02T06:08:33.273Z,1002.66
2017-08-02T06:09:34.705Z,1002.70
2017-08-02T06:10:36.130Z,1002.66
2017-08-02T06:11:37.562Z,1002.59
2017-08-02T06:12:38.990Z,1002.58
2017-08-02T06:13:40.421Z,1002.53
2017-08-02T06:14:41.853Z,1002.50
2017-08-02T06:15:43.284Z,1002.50
2017-08-02T06:16:44.723Z,1002.55
2017-08-02T06:17:46.154Z,1002.60
2017-08-02T06:18:47.583Z,1002.57
2017-08-02T06:19:49.008Z,1002.54
2017-08-02T06:20:50.432Z,1002.48
2017-08-02T06:21:51.880Z,1002.49
2017-08-02T06:22:53.301Z,1002.46
2017-08-02T06:23:54.722Z,1002.36
2017-08-02T06:24:56.158Z,1002.43
2017-08-02T06:25:57.593Z,1002.44
2017-08-02T06:26:59.019Z,1002.39
2017-08-02T06:28:00.459Z,1002.46
2017-08-02T06:29:01.899Z,1002.48
2017-08-02T06:30:03.334Z,1002.46
2017-08-02T06:31:04.764Z,1002.39
2017-08-02T06:32:06.191Z,1002.33
2017-08-02T06:33:07.623Z,1002.32
2017-08-02T06:34:09.062Z,1002.34
2017-08-02T06:35:10.489Z,1002.34
2017-08-02T06:36:11.929Z,1002.33
2017-08-02T06:37:13.359Z,1002.35
2017-08-02T06:38:14.814Z,1002.35
2017-08-02T06:39:16.225Z,1002.25
2017-08-02T06:40:17.650Z,1002.19
2017-08-02T06:41:19.073Z,1002.15
2017-08-02T06:42:20.506Z,1002.19
2017-08-02T06:43:21.943Z,1002.18
2017-08-02T06:44:23.367Z,1002.19
2017-08-02T06:45:24.790Z,1002.10
2017-08-02T06:46:26.221Z,1002.09
2017-08-02T06:47:27.676Z,1002.15
2017-08-02T06:48:29.112Z,1002.16
2017-08-02T06:49:30.541Z,1002.16
2017-08-02T06:50:31.971Z,1002.16
2017-08-02T06:51:33.398Z,1002.21
2017-08-02T06:52:34.827Z,1002.26
2017-08-02T06:53:36.277Z,1002.26
2017-08-02T06:54:37.709Z,1002.21
2017-08-02T06:55:39.145Z,1002.18
2017-08-02T06:56:40.645Z,1002.18
2017-08-02T06:57:42.060Z,1002.10
2017-08-02T06:58:43.501Z,1002.19
2017-08-02T06:59:46.932Z,1002.20
2017-08-02T07:00:48.864Z,1002.23
2017-08-02T07:01:50.396Z,1002.21
2017-08-02T07:02:52.203Z,1002.16
2017-08-02T07:03:53.881Z,1002.21
2017-08-02T07:04:55.567Z,1002.19
2017-08-02T07:05:57.489Z,1002.22
2017-08-02T07:06:58.914Z,1002.25
2017-08-02T07:08:00.357Z,1002.29
2017-08-02T07:09:01.782Z,1002.27
2017-08-02T07:10:03.212Z,1002.37
2017-08-02T07:11:04.648Z,1002.38
2017-08-02T07:12:06.075Z,1002.38
2017-08-02T07:13:07.507Z,1002.45
2017-08-02T07:14:08.930Z,1002.38
2017-08-02T07:15:10.364Z,1002.24
2017-08-02T07:16:11.793Z,1002.24
2017-08-02T07:17:13.225Z,1002.29
2017-08-02T07:18:14.666Z,1002.26
2017-08-02T07:19:16.096Z,1002.26
2017-08-02T07:20:17.531Z,1002.29
2017-08-02T07:21:18.958Z,1002.31
2017-08-02T07:22:20.394Z,1002.37
2017-08-02T07:23:21.823Z,1002.39
2017-08-02T07:24:23.262Z,1002.39
2017-08-02T07:25:24.686Z,1002.43
2017-08-02T07:26:26.121Z,1002.48
2017-08-02T07:27:27.559Z,1002.50
2017-08-02T07:28:28.987Z,1002.55
2017-08-02T07:29:30.425Z,1002.61
2017-08-02T07:30:31.851Z,1002.69
2017-08-02T07:31:33.286Z,1002.73
2017-08-02T07:32:34.712Z,1002.66
2017-08-02T07:33:36.147Z,1002.71
2017-08-02T07:34:37.572Z,1002.75
2017-08-02T07:35:39.007Z,1002.82
2017-08-02T07:36:40.438Z,1002.79
2017-08-02T07:37:41.876Z,1002.90
2017-08-02T07:38:43.317Z,1002.94
2017-08-02T07:39:44.746Z,1002.97
2017-08-02T07:40:46.177Z,1002.92
2017-08-02T07:41:47.604Z,1002.96
2017-08-02T07:42:49.038Z,1002.99
2017-08-02T07:43:50.466Z,1002.98
2017-08-02T07:44:51.895Z,1003.02
2017-08-02T07:45:53.327Z,1003.02
2017-08-02T07:46:54.834Z,1002.96
2017-08-02T07:47:56.263Z,1002.93
2017-08-02T07:48:57.694Z,1002.96
2017-08-02T07:49:59.135Z,1003.05
2017-08-02T07:51:00.559Z,1003.16
2017-08-02T07:52:02.004Z,1003.14
2017-08-02T07:53:03.431Z,1003.10
2017-08-02T07:54:04.864Z,1003.12
2017-08-02T07:55:06.308Z,1003.15
2017-08-02T07:56:07.734Z,1003.09
2017-08-02T07:57:09.172Z,1003.32
2017-08-02T07:58:10.606Z,1003.23
2017-08-02T07:59:12.049Z,1003.39
2017-08-02T08:00:13.487Z,1003.49
2017-08-02T08:01:14.923Z,1003.59
2017-08-02T08:02:16.359Z,1003.65
2017-08-02T08:03:17.794Z,1003.78
2017-08-02T08:04:19.224Z,1003.66
2017-08-02T08:05:20.660Z,1003.64
2017-08-02T08:06:22.114Z,1003.59
2017-08-02T08:07:23.532Z,1003.74
2017-08-02T08:08:24.975Z,1003.75
2017-08-02T08:09:26.406Z,1003.67
2017-08-02T08:10:27.891Z,1003.88
2017-08-02T08:11:29.329Z,1004.04
2017-08-02T08:12:30.767Z,1003.75
2017-08-02T08:13:32.310Z,1003.48
2017-08-02T08:14:33.741Z,1004.03
2017-08-02T08:15:35.185Z,1004.08
2017-08-02T08:16:36.617Z,1004.36
2017-08-02T08:17:38.058Z,1004.44
2017-08-02T08:18:39.499Z,1004.41
2017-08-02T08:19:40.924Z,1004.44
2017-08-02T08:20:42.374Z,1004.58
2017-08-02T08:21:43.823Z,1004.69
2017-08-02T08:22:45.258Z,1004.64
2017-08-02T08:23:46.697Z,1004.47
2017-08-02T08:24:48.137Z,1004.61
2017-08-02T08:25:49.571Z,1004.70
2017-08-02T08:26:51.007Z,1004.92
2017-08-02T08:27:52.444Z,1004.82
2017-08-02T08:28:53.886Z,1004.79
2017-08-02T08:29:55.317Z,1004.94
2017-08-02T08:30:56.766Z,1004.76
2017-08-02T08:31:58.204Z,1004.86
2017-08-02T08:32:59.638Z,1004.87
2017-08-02T08:34:01.075Z,1004.87
2017-08-02T08:35:02.597Z,1005.21
2017-08-02T08:36:04.025Z,1005.31
2017-08-02T08:37:05.460Z,1005.39
2017-08-02T08:38:06.900Z,1005.30
2017-08-02T08:39:08.330Z,1005.51
2017-08-02T08:40:09.763Z,1005.36
2017-08-02T08:41:11.211Z,1005.76
2017-08-02T08:42:12.633Z,1005.70
2017-08-02T08:43:14.142Z,1005.68
2017-08-02T08:44:15.587Z,1005.67
2017-08-02T08:45:17.017Z,1005.32
2017-08-02T08:46:18.456Z,1005.61
2017-08-02T08:47:19.903Z,1005.93
2017-08-02T08:48:21.338Z,1005.93
2017-08-02T08:49:22.780Z,1005.89
2017-08-02T08:50:24.215Z,1005.85
2017-08-02T08:51:25.641Z,1005.87
2017-08-02T08:52:27.078Z,1005.98
2017-08-02T08:53:28.505Z,1006.15
2017-08-02T08:54:29.937Z,1006.11
2017-08-02T08:55:31.367Z,1006.22
2017-08-02T08:56:32.805Z,1006.23
2017-08-02T08:57:34.229Z,1006.18
2017-08-02T08:58:35.661Z,1006.21
2017-08-02T08:59:37.103Z,1006.14
2017-08-02T09:00:38.562Z,1006.07
2017-08-02T09:01:39.982Z,1006.16
2017-08-02T09:02:41.420Z,1006.00
2017-08-02T09:03:42.875Z,1006.11
2017-08-02T09:04:44.311Z,1005.90
2017-08-02T09:05:45.749Z,1006.06
2017-08-02T09:06:47.185Z,1006.11
2017-08-02T09:07:48.614Z,1006.07
2017-08-02T09:08:50.055Z,1006.15
2017-08-02T09:09:51.489Z,1006.17
2017-08-02T09:10:52.929Z,1006.23
2017-08-02T09:11:54.370Z,1006.22
2017-08-02T09:12:55.799Z,1006.26
2017-08-02T09:13:57.246Z,1006.32
2017-08-02T09:14:59.033Z,1006.31
2017-08-02T09:16:00.467Z,1006.40
2017-08-02T09:17:01.902Z,1006.39
2017-08-02T09:18:03.336Z,1006.40
2017-08-02T09:19:04.766Z,1006.48
2017-08-02T09:20:06.211Z,1006.47
2017-08-02T09:21:07.649Z,1006.53
2017-08-02T09:22:09.080Z,1006.47
2017-08-02T09:23:10.514Z,1006.35
2017-08-02T09:24:11.951Z,1006.39
2017-08-02T09:25:13.387Z,1006.11
2017-08-02T09:26:14.824Z,1006.44
2017-08-02T09:27:17.099Z,1006.47
2017-08-02T09:28:18.532Z,1006.46
2017-08-02T09:29:19.973Z,1006.52
2017-08-02T09:30:21.405Z,1006.42
2017-08-02T09:31:22.838Z,1006.49
2017-08-02T09:32:24.283Z,1006.51
2017-08-02T09:33:25.736Z,1006.48
2017-08-02T09:34:27.173Z,1006.47
2017-08-02T09:35:28.598Z,1006.44
2017-08-02T09:36:30.033Z,1006.51
2017-08-02T09:37:31.468Z,1006.40
2017-08-02T09:38:33.712Z,1006.59
2017-08-02T09:39:35.153Z,1006.69
2017-08-02T09:40:36.583Z,1006.64
2017-08-02T09:41:38.023Z,1006.65
2017-08-02T09:42:39.467Z,1006.71
2017-08-02T09:43:40.900Z,1006.82
2017-08-02T09:44:42.344Z,1006.82
2017-08-02T09:45:43.790Z,1006.85
2017-08-02T09:46:45.222Z,1006.83
2017-08-02T09:47:46.658Z,1006.83
2017-08-02T09:48:48.089Z,1006.83
2017-08-02T09:49:49.522Z,1006.84
2017-08-02T09:50:50.963Z,1006.81
2017-08-02T09:51:52.394Z,1006.80
2017-08-02T09:52:53.840Z,1006.76
2017-08-02T09:53:55.277Z,1006.82
2017-08-02T09:54:56.715Z,1006.81
2017-08-02T09:55:58.156Z,1006.80
2017-08-02T09:56:59.586Z,1006.85
2017-08-02T09:58:01.775Z,1006.90
2017-08-02T09:59:03.226Z,1006.96
2017-08-02T10:00:04.655Z,1006.94
2017-08-02T10:01:06.094Z,1006.94
2017-08-02T10:02:07.530Z,1007.00
2017-08-02T10:03:10.536Z,1007.08
2017-08-02T10:04:11.957Z,1007.13
2017-08-02T10:05:13.393Z,1007.19
2017-08-02T10:06:14.836Z,1007.17
2017-08-02T10:07:16.274Z,1007.24
2017-08-02T10:08:17.709Z,1007.31
2017-08-02T10:09:19.148Z,1007.28
2017-08-02T10:10:20.587Z,1007.37
2017-08-02T10:11:22.027Z,1007.23
2017-08-02T10:12:23.537Z,1007.25
2017-08-02T10:13:24.974Z,1007.33
2017-08-02T10:14:26.406Z,1007.25
2017-08-02T10:15:27.864Z,1007.31
2017-08-02T10:16:29.298Z,1007.38
2017-08-02T10:17:31.013Z,1007.37
2017-08-02T10:18:32.441Z,1007.35
2017-08-02T10:19:33.895Z,1007.46
2017-08-02T10:20:35.350Z,1007.47
2017-08-02T10:21:36.784Z,1007.47
2017-08-02T10:22:38.223Z,1007.47
2017-08-02T10:23:39.662Z,1007.43
2017-08-02T10:24:41.099Z,1007.33
2017-08-02T10:25:42.540Z,1007.39
2017-08-02T10:26:43.972Z,1007.38
2017-08-02T10:27:45.403Z,1007.48
2017-08-02T10:28:46.847Z,1007.54
2017-08-02T10:29:48.295Z,1007.51
2017-08-02T10:30:49.731Z,1007.58
2017-08-02T10:31:51.161Z,1007.56
2017-08-02T10:32:52.597Z,1007.51
2017-08-02T10:33:54.045Z,1007.56
2017-08-02T10:34:55.481Z,1007.58
2017-08-02T10:35:56.911Z,1007.61
2017-08-02T10:36:58.349Z,1007.62
2017-08-02T10:37:59.789Z,1007.60
2017-08-02T10:39:01.226Z,1007.58
2017-08-02T10:40:02.663Z,1007.59
2017-08-02T10:41:04.105Z,1007.56
2017-08-02T10:42:05.543Z,1007.55
2017-08-02T10:43:06.981Z,1007.61
2017-08-02T10:44:08.426Z,1007.59
2017-08-02T10:45:09.887Z,1007.53
2017-08-02T10:46:11.323Z,1007.58
2017-08-02T10:47:12.784Z,1007.57
2017-08-02T10:48:14.257Z,1007.55
2017-08-02T10:49:15.702Z,1007.50
2017-08-02T10:50:17.145Z,1007.54
2017-08-02T10:51:18.579Z,1007.67
2017-08-02T10:52:20.013Z,1007.78
2017-08-02T10:53:21.449Z,1007.93
2017-08-02T10:54:22.885Z,1008.02
2017-08-02T10:55:24.392Z,1008.02
2017-08-02T10:56:25.833Z,1008.02
2017-08-02T10:57:27.269Z,1008.00
2017-08-02T10:58:28.740Z,1008.02
2017-08-02T10:59:30.218Z,1008.00
2017-08-02T11:00:31.663Z,1007.99
2017-08-02T11:01:33.094Z,1007.97
2017-08-02T11:02:34.527Z,1008.04
2017-08-02T11:03:35.967Z,1008.11
2017-08-02T11:04:37.407Z,1008.05
2017-08-02T11:05:38.853Z,1008.00
2017-08-02T11:06:40.288Z,1007.95
2017-08-02T11:07:41.715Z,1007.95
2017-08-02T11:08:43.153Z,1007.91
2017-08-02T11:09:44.589Z,1007.97
2017-08-02T11:10:46.034Z,1007.90
2017-08-02T11:11:47.481Z,1007.91
2017-08-02T11:12:48.922Z,1007.97
2017-08-02T11:13:50.402Z,1008.03
2017-08-02T11:14:51.834Z,1008.01
2017-08-02T11:15:53.265Z,1008.10
2017-08-02T11:16:54.704Z,1008.07
2017-08-02T11:17:56.135Z,1008.04
2017-08-02T11:18:57.572Z,1008.03
2017-08-02T11:19:59.000Z,1007.96
2017-08-02T11:21:00.447Z,1007.93
2017-08-02T11:22:01.892Z,1007.89
2017-08-02T11:23:03.329Z,1007.90
2017-08-02T11:24:04.767Z,1007.89
2017-08-02T11:25:06.215Z,1007.87
2017-08-02T11:26:07.640Z,1007.90
2017-08-02T11:27:09.076Z,1007.87
2017-08-02T11:28:10.515Z,1007.96
2017-08-02T11:29:12.045Z,1007.94
2017-08-02T11:30:13.485Z,1007.91
2017-08-02T11:31:14.920Z,1007.92
2017-08-02T11:32:16.370Z,1007.87
2017-08-02T11:33:17.793Z,1007.89
2017-08-02T11:34:19.234Z,1007.95
2017-08-02T11:35:20.672Z,1007.97
2017-08-02T11:36:22.116Z,1007.97
2017-08-02T11:37:23.547Z,1008.02
2017-08-02T11:38:24.993Z,1008.05
2017-08-02T11:39:26.497Z,1008.04
2017-08-02T11:40:27.929Z,1008.02
2017-08-02T11:41:29.361Z,1007.97
2017-08-02T11:42:30.804Z,1007.96
2017-08-02T11:43:32.249Z,1008.01
2017-08-02T11:44:33.685Z,1007.93
2017-08-02T11:45:35.120Z,1008.01
2017-08-02T11:46:36.573Z,1007.96
2017-08-02T11:47:38.010Z,1008.00
2017-08-02T11:48:39.452Z,1008.06
2017-08-02T11:49:40.906Z,1008.12
2017-08-02T11:50:42.391Z,1008.10
2017-08-02T11:51:43.825Z,1008.10
2017-08-02T11:52:45.261Z,1008.08
2017-08-02T11:53:46.743Z,1008.09
2017-08-02T11:54:48.182Z,1008.17
2017-08-02T11:55:49.623Z,1008.17
2017-08-02T11:56:51.058Z,1008.17
2017-08-02T11:57:52.494Z,1008.06
2017-08-02T11:58:53.939Z,1008.08
2017-08-02T11:59:55.378Z,1008.08
2017-08-02T12:00:56.814Z,1008.07
2017-08-02T12:01:58.251Z,1007.99
2017-08-02T12:02:59.685Z,1007.97
2017-08-02T12:04:01.122Z,1008.05
2017-08-02T12:05:02.597Z,1008.02
2017-08-02T12:06:04.054Z,1008.03
2017-08-02T12:07:05.489Z,1007.96
2017-08-02T12:08:06.932Z,1007.87
2017-08-02T12:09:08.371Z,1007.88
2017-08-02T12:10:09.810Z,1007.91
2017-08-02T12:11:11.274Z,1007.90
2017-08-02T12:12:12.713Z,1007.88
2017-08-02T12:13:14.174Z,1007.86
2017-08-02T12:14:15.608Z,1007.86
2017-08-02T12:15:17.048Z,1007.83
2017-08-02T12:16:18.490Z,1007.78
2017-08-02T12:17:19.923Z,1007.82
2017-08-02T12:18:21.370Z,1007.76
2017-08-02T12:19:22.815Z,1007.77
2017-08-02T12:20:24.259Z,1007.75
2017-08-02T12:21:25.699Z,1007.72
2017-08-02T12:22:27.132Z,1007.76
2017-08-02T12:23:28.576Z,1007.75